Time;durP1;ratioP1;P1;durP2;ratioP2;P2;SDS_P1;SDS_P2;PMS_P1;PMS_P2;Temp;Humidity;BMP_temperature;BMP_pressure;BME280_temperature;BME280_humidity;BME280_pressure;Samples;Min_cycle;Max_cycle;Signal;HPM_P1;HPM_P2
2021/04/30 00:00:14;;;;;;;2.53;0.73;;;;;;;22.86;47.39;97841.47;5041655;28;20203;-55
2021/04/30 00:02:41;;;;;;;2.38;1.02;;;;;;;22.86;47.20;97838.81;5043325;28;20222;-57
2021/04/30 00:05:09;;;;;;;1.85;1.00;;;;;;;22.84;47.78;97848.81;5031580;28;20243;-58
2021/04/30 00:07:35;;;;;;;1.33;0.57;;;;;;;22.85;47.72;97841.66;5033567;28;20211;-59
2021/04/30 00:10:02;;;;;;;3.25;0.77;;;;;;;22.84;47.78;97842.66;5034220;28;20222;-56
2021/04/30 00:12:28;;;;;;;1.73;0.90;;;;;;;22.84;47.79;97840.00;5043114;28;20207;-56
2021/04/30 00:14:55;;;;;;;3.10;0.88;;;;;;;22.82;47.29;97834.03;5042903;28;20212;-56
2021/04/30 00:17:21;;;;;;;1.77;0.85;;;;;;;22.81;47.80;97830.50;5043557;28;20302;-55
2021/04/30 00:19:47;;;;;;;3.28;0.70;;;;;;;22.80;47.30;97836.88;5046308;28;20206;-57
2021/04/30 00:22:13;;;;;;;1.95;0.70;;;;;;;22.81;48.09;97833.19;5040348;28;20249;-56
2021/04/30 00:24:40;;;;;;;1.50;0.82;;;;;;;22.76;47.51;97832.88;5035232;28;20226;-57
2021/04/30 00:27:07;;;;;;;1.40;0.60;;;;;;;22.78;48.20;97832.72;5041994;28;20248;-56
2021/04/30 00:29:33;;;;;;;2.00;0.85;;;;;;;22.78;47.87;97843.38;5036294;28;20606;-54
2021/04/30 00:31:59;;;;;;;1.90;0.80;;;;;;;22.78;46.95;97838.84;5042453;28;20246;-56
2021/04/30 00:34:26;;;;;;;2.35;0.80;;;;;;;22.77;47.26;97845.22;5037913;28;20272;-54
2021/04/30 00:36:52;;;;;;;1.98;0.85;;;;;;;22.77;47.99;97842.53;5043294;28;20323;-58
2021/04/30 00:39:18;;;;;;;3.30;0.70;;;;;;;22.77;47.26;97847.06;5035887;28;20210;-57
2021/04/30 00:41:44;;;;;;;2.30;0.73;;;;;;;22.74;47.38;97853.56;5045742;28;20667;-57
2021/04/30 00:44:11;;;;;;;0.98;0.70;;;;;;;22.75;47.91;97852.56;5035811;28;20299;-54
2021/04/30 00:46:37;;;;;;;1.10;0.75;;;;;;;22.74;47.60;97853.56;5042224;28;20204;-56
2021/04/30 00:49:04;;;;;;;2.00;0.77;;;;;;;22.73;47.27;97841.22;5039984;28;20207;-55
2021/04/30 00:51:31;;;;;;;0.70;0.60;;;;;;;22.73;47.94;97849.22;5030854;28;20208;-56
2021/04/30 00:53:57;;;;;;;0.90;0.60;;;;;;;22.72;47.74;97850.25;5040608;28;20237;-53
2021/04/30 00:56:23;;;;;;;1.15;0.70;;;;;;;22.72;47.43;97842.25;5037779;28;20200;-57
2021/04/30 00:58:50;;;;;;;2.65;0.60;;;;;;;22.73;47.46;97835.91;5027932;28;20262;-57
2021/04/30 01:01:18;;;;;;;3.40;0.95;;;;;;;22.68;48.07;97832.94;5031279;28;20287;-57
2021/04/30 01:03:45;;;;;;;1.85;0.52;;;;;;;22.70;48.20;97847.75;5042715;28;20234;-58
2021/04/30 01:06:12;;;;;;;1.42;0.80;;;;;;;22.68;47.95;97843.59;5044541;28;20556;-55
2021/04/30 01:08:38;;;;;;;0.90;0.50;;;;;;;22.70;47.58;97846.94;5046273;28;20207;-57
2021/04/30 01:11:04;;;;;;;3.55;0.60;;;;;;;22.70;47.33;97849.59;5043318;28;20215;-58
2021/04/30 01:13:30;;;;;;;1.17;0.70;;;;;;;22.68;47.90;97856.91;5045155;28;20226;-57
2021/04/30 01:15:57;;;;;;;2.28;0.73;;;;;;;22.66;48.01;97848.28;5039880;28;20272;-59
2021/04/30 01:18:24;;;;;;;3.90;0.85;;;;;;;22.68;47.47;97851.59;5035403;28;20214;-57
2021/04/30 01:20:50;;;;;;;1.75;0.90;;;;;;;22.64;47.90;97853.78;5037980;28;20668;-57
2021/04/30 01:23:17;;;;;;;2.90;0.52;;;;;;;22.65;47.86;97858.13;5028100;28;20296;-57
2021/04/30 01:25:43;;;;;;;1.35;0.70;;;;;;;22.66;48.21;97858.94;5040523;28;20223;-53
2021/04/30 01:28:10;;;;;;;2.50;0.80;;;;;;;22.64;47.43;97858.28;5044556;28;20211;-57
2021/04/30 01:30:38;;;;;;;5.03;0.98;;;;;;;22.64;47.16;97863.63;5035888;28;20229;-58
2021/04/30 01:33:15;;;;;;;2.70;0.80;;;;;;;22.66;47.30;97858.94;5043531;28;20282;-57
2021/04/30 01:35:41;;;;;;;1.48;0.65;;;;;;;22.63;47.32;97861.94;5034934;28;20228;-57
2021/04/30 01:38:07;;;;;;;1.85;0.70;;;;;;;22.61;48.22;97851.47;5035386;28;20938;-57
2021/04/30 01:40:36;;;;;;;4.28;0.60;;;;;;;22.60;48.18;97838.31;5041028;28;20597;-56
2021/04/30 01:43:05;;;;;;;1.45;0.75;;;;;;;22.63;47.38;97835.31;5036073;28;20208;-57
2021/04/30 01:45:35;;;;;;;2.17;0.60;;;;;;;22.62;47.34;97841.66;5042212;28;20230;-59
2021/04/30 01:48:03;;;;;;;2.90;0.68;;;;;;;22.61;47.33;97845.31;5037383;28;20225;-58
2021/04/30 01:50:29;;;;;;;3.85;0.90;;;;;;;22.61;47.70;97843.47;5043671;28;20215;-58
2021/04/30 01:52:55;;;;;;;2.28;0.60;;;;;;;22.62;47.17;97846.97;5032585;28;20218;-58
2021/04/30 01:55:25;;;;;;;1.10;0.63;;;;;;;22.61;48.30;97856.78;5043153;28;20227;-54
2021/04/30 01:57:52;;;;;;;1.95;0.65;;;;;;;22.62;47.40;97844.31;5037852;28;20203;-54
2021/04/30 02:00:20;;;;;;;1.10;0.70;;;;;;;22.62;47.09;97850.47;5032809;28;20210;-55
2021/04/30 02:02:48;;;;;;;1.27;0.60;;;;;;;22.61;47.43;97863.97;5039653;28;20205;-57
2021/04/30 02:05:15;;;;;;;2.58;0.60;;;;;;;22.60;48.00;97864.94;5034709;28;20330;-58
2021/04/30 02:07:41;;;;;;;1.08;0.63;;;;;;;22.59;47.76;97858.81;5039301;28;20200;-58
2021/04/30 02:10:13;;;;;;;2.38;0.60;;;;;;;22.61;46.95;97855.97;5029676;28;20204;-58
2021/04/30 02:12:40;;;;;;;1.05;0.50;;;;;;;22.60;47.21;97864.94;5039506;28;20199;-58
2021/04/30 02:15:09;;;;;;;1.08;0.60;;;;;;;22.59;47.83;97860.66;5037757;28;20230;-57
2021/04/30 02:17:35;;;;;;;1.20;0.60;;;;;;;22.56;47.32;97863.66;5046529;28;20269;-57
2021/04/30 02:20:01;;;;;;;2.33;0.70;;;;;;;;;;5049825;28;20207;-57
2021/04/30 02:22:27;;;;;;;1.70;0.50;;;;;;;22.58;46.80;97869.63;5046151;28;20591;-55
2021/04/30 02:24:53;;;;;;;2.40;0.63;;;;;;;;;;5045782;28;20285;-58
2021/04/30 02:27:19;;;;;;;2.65;0.77;;;;;;;22.58;47.31;97880.28;5048689;28;20203;-57
2021/04/30 02:29:45;;;;;;;1.63;0.65;;;;;;;22.55;47.09;97876.16;5044066;28;20325;-57
2021/04/30 02:32:12;;;;;;;1.95;0.57;;;;;;;22.53;47.42;97876.31;5046629;28;20770;-57
2021/04/30 02:34:38;;;;;;;0.68;0.52;;;;;;;22.53;47.68;97873.66;5048411;28;20221;-56
2021/04/30 02:37:04;;;;;;;2.72;0.80;;;;;;;22.52;48.18;97866.66;5047657;28;20299;-57
2021/04/30 02:39:30;;;;;;;1.05;0.70;;;;;;;22.53;47.01;97865.66;5039715;28;20222;-56
2021/04/30 02:41:56;;;;;;;1.88;0.60;;;;;;;22.50;47.18;97852.69;5048102;28;20218;-57
2021/04/30 02:44:22;;;;;;;1.20;0.60;;;;;;;22.49;47.07;97853.69;5042567;28;20234;-60
2021/04/30 02:46:48;;;;;;;2.78;0.60;;;;;;;22.48;47.87;97854.72;5043946;28;20211;-58
2021/04/30 02:49:17;;;;;;;1.45;0.50;;;;;;;22.46;47.15;97838.06;5045517;28;20208;-58
2021/04/30 02:51:43;;;;;;;1.98;0.63;;;;;;;22.47;47.06;97836.25;5035356;28;20242;-59
2021/04/30 02:54:09;;;;;;;2.10;0.75;;;;;;;22.48;47.64;97845.88;5045787;28;20203;-56
2021/04/30 02:56:35;;;;;;;1.20;0.70;;;;;;;22.47;47.39;97853.03;5047130;28;20203;-56
2021/04/30 02:59:04;;;;;;;1.70;1.02;;;;;;;22.46;47.52;97838.06;5043133;28;20226;-57
2021/04/30 03:01:30;;;;;;;0.50;0.40;;;;;;;22.47;47.67;97839.72;5045617;28;20719;-56
2021/04/30 03:03:56;;;;;;;1.92;0.60;;;;;;;22.45;47.73;97841.75;5035154;28;20231;-55
2021/04/30 03:06:23;;;;;;;1.70;0.68;;;;;;;22.44;47.39;97845.41;5036918;28;20241;-55
2021/04/30 03:08:52;;;;;;;0.93;0.55;;;;;;;22.44;47.29;97853.38;5045653;28;20298;-55
2021/04/30 03:11:19;;;;;;;1.80;0.77;;;;;;;22.45;47.84;97855.06;5043211;28;20207;-57
2021/04/30 03:13:45;;;;;;;3.22;0.55;;;;;;;22.45;48.05;97860.38;5043497;28;20210;-58
2021/04/30 03:16:11;;;;;;;1.77;0.57;;;;;;;22.43;47.68;97857.06;5037829;28;20224;-56
2021/04/30 03:18:37;;;;;;;0.93;0.65;;;;;;;22.45;47.06;97864.88;5043906;28;20251;-54
2021/04/30 03:21:03;;;;;;;2.13;0.70;;;;;;;22.46;47.50;97867.34;5048220;28;20253;-57
2021/04/30 03:23:30;;;;;;;2.00;0.70;;;;;;;22.46;47.38;97862.03;5045727;28;20601;-58
2021/04/30 03:25:56;;;;;;;2.42;0.57;;;;;;;22.46;47.20;97861.22;5045329;28;20241;-58
2021/04/30 03:28:22;;;;;;;2.45;0.80;;;;;;;22.46;47.63;97862.03;5043515;28;20678;-56
2021/04/30 03:30:48;;;;;;;1.60;0.80;;;;;;;22.44;47.63;97861.38;5034355;28;20204;-55
2021/04/30 03:33:14;;;;;;;1.27;0.50;;;;;;;22.47;47.21;97853.03;5042868;28;20218;-57
2021/04/30 03:35:40;;;;;;;0.80;0.50;;;;;;;22.46;47.17;97847.88;5045594;28;20215;-57
2021/04/30 03:38:07;;;;;;;2.92;0.52;;;;;;;22.48;47.84;97840.53;5040025;28;20269;-56
2021/04/30 03:40:34;;;;;;;1.48;0.60;;;;;;;22.49;47.73;97844.88;5045626;28;20226;-56
2021/04/30 03:43:00;;;;;;;0.75;0.70;;;;;;;22.51;47.56;97846.34;5046624;28;20350;-54
2021/04/30 03:45:26;;;;;;;5.57;0.70;;;;;;;22.53;47.77;97855.03;5038018;28;20739;-56
2021/04/30 03:47:52;;;;;;;0.85;0.50;;;;;;;22.54;48.42;97858.50;5046047;28;20230;-57
2021/04/30 03:50:18;;;;;;;1.05;0.60;;;;;;;22.56;47.55;97861.00;5040121;28;20204;-55
2021/04/30 03:52:45;;;;;;;1.52;0.60;;;;;;;22.50;48.45;97847.38;5046403;28;20214;-56
2021/04/30 03:55:11;;;;;;;0.88;0.50;;;;;;;22.56;47.84;97834.34;5045743;28;20225;-53
2021/04/30 03:57:38;;;;;;;0.82;0.60;;;;;;;22.54;48.44;97832.69;5047410;28;20230;-56
2021/04/30 04:00:05;;;;;;;2.97;0.75;;;;;;;22.54;48.20;97835.34;5046015;28;20268;-55
2021/04/30 04:02:31;;;;;;;3.50;0.63;;;;;;;22.54;48.27;97823.88;5044446;28;20614;-55
2021/04/30 04:04:57;;;;;;;1.92;0.65;;;;;;;22.55;47.30;97830.88;5041149;28;20322;-55
2021/04/30 04:07:23;;;;;;;2.75;0.60;;;;;;;22.54;47.78;97839.84;5043723;28;20288;-54
2021/04/30 04:09:49;;;;;;;0.73;0.50;;;;;;;22.58;48.22;97837.66;5028551;28;20676;-55
2021/04/30 04:12:15;;;;;;;1.85;0.70;;;;;;;22.56;48.65;97837.84;5031925;28;20498;-57
2021/04/30 04:14:43;;;;;;;1.70;0.52;;;;;;;22.59;48.65;97832.16;5029194;28;20228;-57
2021/04/30 04:17:09;;;;;;;1.58;0.70;;;;;;;22.58;48.14;97843.81;5032971;28;20207;-57
2021/04/30 04:19:35;;;;;;;4.65;0.65;;;;;;;22.58;48.49;97843.00;5036711;28;20208;-55
2021/04/30 04:22:02;;;;;;;0.98;0.57;;;;;;;22.59;47.68;97850.81;5037524;28;20290;-56
2021/04/30 04:24:28;;;;;;;1.17;0.82;;;;;;;22.60;47.98;97847.16;5038975;28;20644;-57
2021/04/30 04:26:54;;;;;;;1.50;0.65;;;;;;;22.60;48.18;97843.63;5042034;28;20215;-49
2021/04/30 04:29:20;;;;;;;0.70;0.50;;;;;;;22.60;47.97;97847.16;5042558;28;20260;-56
2021/04/30 04:31:47;;;;;;;0.60;0.50;;;;;;;22.62;48.45;97849.66;5041276;28;20210;-57
2021/04/30 04:34:13;;;;;;;0.60;0.60;;;;;;;22.62;47.72;97854.97;5039770;28;20287;-56
2021/04/30 04:36:39;;;;;;;1.40;0.60;;;;;;;22.61;47.38;97842.66;5042480;28;20790;-59
2021/04/30 04:39:06;;;;;;;0.82;0.60;;;;;;;22.59;48.56;97850.00;5045729;28;20211;-52
2021/04/30 04:41:32;;;;;;;2.25;0.60;;;;;;;22.60;47.96;97856.97;5044219;28;20674;-58
2021/04/30 04:43:58;;;;;;;0.50;0.50;;;;;;;22.60;48.32;97855.16;5045313;28;20207;-58
2021/04/30 04:46:24;;;;;;;2.80;0.70;;;;;;;22.61;47.81;97863.97;5042743;28;20712;-57
2021/04/30 04:48:51;;;;;;;1.65;0.68;;;;;;;22.61;48.34;97863.97;5032969;28;20532;-58
2021/04/30 04:51:17;;;;;;;2.08;0.40;;;;;;;22.61;47.46;97869.28;5038867;28;20266;-56
2021/04/30 04:53:43;;;;;;;1.05;0.70;;;;;;;22.60;48.35;97863.13;5036434;28;20503;-58
2021/04/30 04:56:09;;;;;;;0.70;0.45;;;;;;;22.62;48.38;97863.78;5032593;28;20545;-58
2021/04/30 04:58:35;;;;;;;1.90;0.65;;;;;;;22.61;48.34;97878.09;5031608;28;20222;-56
2021/04/30 05:01:01;;;;;;;2.63;0.75;;;;;;;22.61;48.60;97875.44;5036997;28;20207;-57
2021/04/30 05:03:27;;;;;;;1.17;0.63;;;;;;;22.61;48.27;97875.44;5032054;28;20253;-58
2021/04/30 05:05:54;;;;;;;1.13;0.55;;;;;;;22.61;48.09;97880.75;5033486;28;20235;-57
2021/04/30 05:08:21;;;;;;;1.13;0.60;;;;;;;22.63;48.43;97883.25;5041245;28;20204;-56
2021/04/30 05:10:47;;;;;;;2.45;0.80;;;;;;;22.62;48.55;97886.94;5042765;28;20651;-58
2021/04/30 05:13:13;;;;;;;1.35;0.80;;;;;;;22.62;48.74;97878.94;5041066;28;20216;-53
2021/04/30 05:15:39;;;;;;;2.63;0.52;;;;;;;22.62;48.04;97877.09;5039305;28;20219;-57
2021/04/30 05:18:05;;;;;;;2.67;0.50;;;;;;;22.61;47.27;97874.63;5040442;28;20294;-57
2021/04/30 05:20:31;;;;;;;2.53;0.70;;;;;;;22.60;47.71;97878.28;5043329;28;20302;-56
2021/04/30 05:22:59;;;;;;;2.03;0.70;;;;;;;22.61;47.45;97886.09;5036660;28;20652;-57
2021/04/30 05:25:26;;;;;;;2.03;0.70;;;;;;;22.61;47.18;97879.94;5037641;28;20553;-56
2021/04/30 05:27:52;;;;;;;12.75;1.65;;;;;;;22.61;47.49;97886.09;5044524;28;20652;-57
2021/04/30 05:30:18;;;;;;;13.50;1.48;;;;;;;22.66;48.60;97880.25;5036276;28;20214;-60
2021/04/30 05:32:44;;;;;;;21.15;2.15;;;;;;;22.69;48.91;97874.56;5040800;28;20361;-62
2021/04/30 05:35:12;;;;;;;18.27;2.30;;;;;;;22.72;49.29;97874.22;5040844;28;20704;-59
2021/04/30 05:37:38;;;;;;;18.83;2.20;;;;;;;22.72;49.57;97875.03;5041250;28;20249;-65
2021/04/30 05:40:07;;;;;;;61.17;3.00;;;;;;;22.72;49.00;97874.22;5038477;28;20214;-62
2021/04/30 05:42:33;;;;;;;12.65;2.15;;;;;;;22.73;48.86;97870.53;5042387;28;20248;-63
2021/04/30 05:45:00;;;;;;;29.33;2.15;;;;;;;22.76;48.74;97858.72;5040836;28;20242;-56
2021/04/30 05:47:26;;;;;;;10.90;1.60;;;;;;;22.75;49.51;97855.22;5038670;28;20303;-56
2021/04/30 05:49:52;;;;;;;11.93;2.00;;;;;;;22.78;49.10;97862.03;5050096;28;20214;-54
2021/04/30 05:52:18;;;;;;;18.60;2.00;;;;;;;22.77;48.52;97869.19;5044148;28;20203;-54
2021/04/30 05:54:44;;;;;;;9.43;1.58;;;;;;;22.77;49.08;97861.19;5045907;28;20223;-55
2021/04/30 05:57:11;;;;;;;11.82;1.88;;;;;;;22.78;48.99;97857.50;5047286;28;20938;-57
2021/04/30 05:59:37;;;;;;;10.52;1.90;;;;;;;22.78;48.32;97849.50;5046621;28;20306;-54
2021/04/30 06:02:03;;;;;;;8.00;1.63;;;;;;;22.77;47.90;97842.53;5051731;28;20282;-56
2021/04/30 06:04:30;;;;;;;15.77;1.50;;;;;;;22.77;48.89;97839.88;5052631;28;20227;-56
2021/04/30 06:06:56;;;;;;;8.00;1.83;;;;;;;22.77;48.71;97831.88;5045684;28;20679;-58
2021/04/30 06:09:22;;;;;;;17.55;1.70;;;;;;;22.74;48.57;97837.56;5045536;28;20207;-56
2021/04/30 06:11:49;;;;;;;13.13;1.90;;;;;;;22.72;48.97;97839.59;5043562;28;20723;-57
2021/04/30 06:14:16;;;;;;;15.35;1.60;;;;;;;22.77;48.92;97847.88;5041602;28;20211;-56
2021/04/30 06:16:42;;;;;;;14.52;2.05;;;;;;;22.77;49.07;97845.22;5042569;28;20307;-59
2021/04/30 06:19:08;;;;;;;12.57;1.92;;;;;;;22.79;48.70;97835.19;5048549;28;20200;-57
2021/04/30 06:21:35;;;;;;;15.77;1.48;;;;;;;22.79;49.44;97834.38;5047277;28;20782;-55
2021/04/30 06:24:01;;;;;;;9.40;1.60;;;;;;;22.78;49.98;97841.53;5042154;28;20859;-58
2021/04/30 06:26:28;;;;;;;5.75;1.80;;;;;;;22.78;50.60;97827.38;5053599;28;20625;-58
2021/04/30 06:28:54;;;;;;;10.40;1.67;;;;;;;22.78;50.19;97822.88;5044877;28;20223;-56
2021/04/30 06:31:21;;;;;;;6.10;1.63;;;;;;;22.80;48.99;97830.69;5053368;28;20822;-56
2021/04/30 06:33:47;;;;;;;11.20;2.05;;;;;;;22.81;48.86;97829.69;5053160;28;20290;-57
2021/04/30 06:36:13;;;;;;;8.75;1.60;;;;;;;22.81;47.94;97833.19;5053257;28;20250;-53
2021/04/30 06:38:39;;;;;;;17.75;1.90;;;;;;;22.85;47.94;97839.00;5047146;28;20226;-58
2021/04/30 06:41:06;;;;;;;4.47;1.48;;;;;;;22.85;47.49;97836.34;5050635;28;20690;-58
2021/04/30 06:43:32;;;;;;;10.93;1.98;;;;;;;22.89;47.40;97840.28;5048645;28;20215;-58
2021/04/30 06:45:58;;;;;;;6.63;1.83;;;;;;;22.97;46.73;97834.91;5046178;28;20254;-54
2021/04/30 06:48:25;;;;;;;3.03;1.00;;;;;;;23.02;46.90;97845.03;5047540;28;20207;-57
2021/04/30 06:50:52;;;;;;;4.68;0.90;;;;;;;23.06;48.11;97841.00;5048857;28;20298;-59
2021/04/30 06:53:18;;;;;;;6.50;1.50;;;;;;;23.07;48.16;97845.38;5049541;28;20222;-56
2021/04/30 06:55:44;;;;;;;7.25;1.75;;;;;;;23.10;48.06;97853.00;5052900;28;20227;-57
2021/04/30 06:58:10;;;;;;;26.83;2.22;;;;;;;23.09;46.80;97856.66;5045285;28;20219;-57
2021/04/30 07:00:36;;;;;;;11.75;1.58;;;;;;;23.11;46.51;97859.16;5045837;28;20200;-58
2021/04/30 07:03:02;;;;;;;7.85;1.25;;;;;;;23.11;47.48;97859.16;5041908;28;20290;-60
2021/04/30 07:05:30;;;;;;;8.98;1.20;;;;;;;23.08;47.10;97855.00;5049164;28;20229;-55
2021/04/30 07:07:57;;;;;;;4.05;2.22;;;;;;;23.02;44.84;97853.03;5040028;28;20864;-60
2021/04/30 07:10:24;;;;;;;14.57;2.17;;;;;;;22.89;42.35;97843.78;5038428;28;20280;-59
2021/04/30 07:12:52;;;;;;;7.95;3.20;;;;;;;22.61;39.40;97843.47;5043404;28;20521;-57
2021/04/30 07:15:18;;;;;;;6.07;1.52;;;;;;;22.67;41.60;97834.78;5040125;28;20276;-60
2021/04/30 07:17:44;;;;;;;4.47;1.48;;;;;;;22.72;42.96;97831.59;5043996;28;20215;-59
2021/04/30 07:20:12;;;;;;;2.97;1.33;;;;;;;22.74;43.98;97824.25;5040186;28;20724;-62
2021/04/30 07:22:40;;;;;;;4.38;1.13;;;;;;;22.77;44.54;97815.09;5044710;28;20576;-57
2021/04/30 07:25:07;;;;;;;4.18;0.90;;;;;;;22.78;44.77;97817.53;5046906;28;20710;-60
2021/04/30 07:27:33;;;;;;;3.97;1.15;;;;;;;22.80;44.97;97812.88;5054182;28;20231;-59
2021/04/30 07:29:59;;;;;;;2.97;1.13;;;;;;;22.83;44.74;97820.53;5043089;28;20204;-59
2021/04/30 07:32:26;;;;;;;6.88;1.27;;;;;;;22.87;45.02;97818.34;5045518;28;20223;-60
2021/04/30 07:34:52;;;;;;;2.78;0.98;;;;;;;22.87;45.36;97821.81;5051735;28;20644;-55
2021/04/30 07:37:18;;;;;;;7.75;1.38;;;;;;;22.87;45.01;97821.81;5047189;28;20269;-60
2021/04/30 07:39:45;;;;;;;2.45;0.80;;;;;;;22.85;46.00;97813.19;5045978;28;20651;-60
2021/04/30 07:42:12;;;;;;;3.30;1.13;;;;;;;22.86;45.02;97820.16;5044999;28;20199;-60
2021/04/30 07:44:38;;;;;;;4.03;1.20;;;;;;;22.85;46.06;97812.34;5047471;28;20318;-57
2021/04/30 07:47:05;;;;;;;2.90;0.98;;;;;;;22.85;45.55;97810.50;5045897;28;20212;-57
2021/04/30 07:49:31;;;;;;;5.57;0.93;;;;;;;22.84;46.22;97805.34;5044580;28;20203;-59
2021/04/30 07:52:00;;;;;;;4.30;1.00;;;;;;;22.83;45.78;97809.88;5044085;28;20229;-56
2021/04/30 07:54:26;;;;;;;7.32;1.60;;;;;;;22.83;46.37;97815.19;5048769;28;20629;-59
2021/04/30 07:56:53;;;;;;;4.75;1.40;;;;;;;22.83;46.38;97812.53;5040692;28;20211;-60
2021/04/30 07:59:20;;;;;;;1.63;0.80;;;;;;;22.83;46.35;97820.53;5034344;28;20215;-59
2021/04/30 08:01:46;;;;;;;5.57;1.20;;;;;;;22.82;45.80;97826.84;5040782;28;20294;-59
2021/04/30 08:04:12;;;;;;;1.95;0.93;;;;;;;22.83;46.29;97827.66;5047019;28;20928;-58
2021/04/30 08:06:38;;;;;;;5.88;1.00;;;;;;;22.82;45.40;97824.19;5045604;28;20212;-55
2021/04/30 08:09:05;;;;;;;2.40;0.90;;;;;;;22.81;46.60;97830.50;5052983;28;20418;-57
2021/04/30 08:11:33;;;;;;;5.15;0.98;;;;;;;22.81;46.34;97837.69;5035861;28;20195;-59
2021/04/30 08:14:01;;;;;;;3.60;0.90;;;;;;;22.81;46.45;97849.16;5044175;28;20661;-54
2021/04/30 08:16:27;;;;;;;2.53;0.90;;;;;;;22.82;46.02;97848.16;5041673;28;20295;-58
2021/04/30 08:18:54;;;;;;;5.65;1.00;;;;;;;22.86;45.63;97843.31;5040314;28;20239;-54
2021/04/30 08:21:20;;;;;;;5.25;0.90;;;;;;;22.86;45.97;97844.13;5051976;28;20317;-57
2021/04/30 08:23:46;;;;;;;2.42;0.90;;;;;;;22.88;47.37;97843.97;5055887;28;20701;-62
2021/04/30 08:26:12;;;;;;;2.67;0.90;;;;;;;22.90;47.37;97848.13;5050568;28;20388;-57
2021/04/30 08:28:38;;;;;;;3.70;0.95;;;;;;;22.92;48.24;97848.75;5052942;28;20239;-56
2021/04/30 08:31:05;;;;;;;3.95;1.30;;;;;;;22.92;47.78;97842.63;5046578;28;20208;-58
2021/04/30 08:33:31;;;;;;;3.03;0.80;;;;;;;22.95;47.51;97844.06;5051279;28;20294;-57
2021/04/30 08:35:58;;;;;;;2.40;1.00;;;;;;;22.97;48.12;97842.09;5051778;28;20902;-57
2021/04/30 08:38:24;;;;;;;2.28;0.98;;;;;;;23.00;47.61;97839.03;5053431;28;20206;-57
2021/04/30 08:40:50;;;;;;;2.65;1.42;;;;;;;23.00;48.31;97829.22;5054138;28;21029;-59
2021/04/30 08:43:17;;;;;;;1.95;0.85;;;;;;;23.02;47.76;97821.06;5054933;28;20204;-59
2021/04/30 08:45:44;;;;;;;2.83;0.90;;;;;;;23.03;48.01;97817.34;5051329;28;20526;-59
2021/04/30 08:48:14;;;;;;;2.50;1.13;;;;;;;23.03;49.05;97809.34;5050724;28;20374;-57
2021/04/30 08:50:40;;;;;;;3.78;0.90;;;;;;;23.04;49.42;97803.84;5052201;28;20235;-58
2021/04/30 08:53:06;;;;;;;3.30;0.77;;;;;;;23.05;48.69;97796.69;5053127;28;20206;-56
2021/04/30 08:55:33;;;;;;;5.53;0.90;;;;;;;23.06;49.20;97806.34;5050773;28;20310;-55
2021/04/30 08:58:03;;;;;;;1.30;0.80;;;;;;;23.06;48.73;97811.66;5049954;28;20746;-54
2021/04/30 09:00:30;;;;;;;5.53;1.00;;;;;;;23.08;48.44;97812.34;5046596;28;20558;-59
2021/04/30 09:02:56;;;;;;;1.50;0.70;;;;;;;23.08;49.25;97807.88;5048501;28;22033;-59
2021/04/30 09:05:26;;;;;;;2.55;0.93;;;;;;;23.08;49.35;97813.19;5053303;28;20253;-58
2021/04/30 09:07:55;;;;;;;4.72;1.05;;;;;;;23.09;48.20;97809.50;5052134;28;20214;-60
2021/04/30 09:10:22;;;;;;;4.18;0.70;;;;;;;23.07;48.67;97811.53;5054758;28;20220;-63
2021/04/30 09:13:02;;;;;;;6.90;1.00;;;;;;;23.13;47.89;97825.97;5049778;28;20207;-56
2021/04/30 09:15:29;;;;;;;3.05;0.82;;;;;;;23.15;47.55;97839.97;5049233;28;20262;-56
2021/04/30 09:17:59;;;;;;;7.82;1.17;;;;;;;23.13;47.01;97846.47;5053066;28;20210;-60
2021/04/30 09:20:38;;;;;;;3.47;0.73;;;;;;;23.13;47.58;97851.81;5044484;28;20583;-58
2021/04/30 09:23:04;;;;;;;2.03;0.90;;;;;;;23.12;47.53;97843.00;5046974;28;20245;-57
2021/04/30 09:25:30;;;;;;;1.42;0.98;;;;;;;23.09;47.43;97846.81;5052102;28;20293;-58
2021/04/30 09:27:58;;;;;;;2.72;0.70;;;;;;;23.05;47.73;97837.50;5050303;28;20329;-55
2021/04/30 09:30:26;;;;;;;2.65;1.00;;;;;;;23.03;47.43;97844.00;5056385;28;20666;-61
2021/04/30 09:33:06;;;;;;;1.80;0.90;;;;;;;23.01;48.07;97849.53;5054743;28;20218;-58
2021/04/30 09:35:35;;;;;;;1.60;0.77;;;;;;;23.00;47.99;97837.22;5049838;28;20254;-60
2021/04/30 09:38:17;;;;;;;2.50;0.85;;;;;;;22.99;47.43;97824.88;5049806;28;20275;-58
2021/04/30 09:40:44;;;;;;;3.55;0.90;;;;;;;22.99;48.01;97824.06;5041781;28;20305;-59
2021/04/30 09:43:12;;;;;;;2.72;0.80;;;;;;;22.97;48.07;97826.91;5039003;28;20231;-58
2021/04/30 09:45:38;;;;;;;1.70;0.70;;;;;;;22.98;47.79;97833.06;5033093;28;20240;-57
2021/04/30 09:48:06;;;;;;;6.85;0.95;;;;;;;22.96;47.73;97832.41;5037707;28;20227;-58
2021/04/30 09:50:34;;;;;;;0.60;0.60;;;;;;;22.96;47.40;97824.41;5039062;28;20265;-55
2021/04/30 09:53:03;;;;;;;4.18;1.00;;;;;;;22.92;47.49;97816.78;5033932;28;20706;-54
2021/04/30 09:55:43;;;;;;;3.85;0.75;;;;;;;22.90;47.54;97826.78;5043865;28;20215;-51
2021/04/30 09:58:15;;;;;;;2.88;0.88;;;;;;;22.90;48.26;97825.97;5032996;28;20312;-55
2021/04/30 10:00:42;;;;;;;3.20;0.65;;;;;;;22.87;47.92;97816.50;5038257;28;20583;-57
2021/04/30 10:03:16;;;;;;;1.52;0.75;;;;;;;22.85;47.56;97813.19;5036834;28;20219;-58
2021/04/30 10:06:04;;;;;;;1.23;0.65;;;;;;;22.85;47.34;97813.19;5036933;28;20237;-58
2021/04/30 10:08:32;;;;;;;1.33;0.70;;;;;;;22.83;48.29;97819.69;5031303;28;20261;-58
2021/04/30 10:10:59;;;;;;;1.35;0.70;;;;;;;22.81;47.80;97822.53;5028551;28;20308;-55
2021/04/30 10:13:25;;;;;;;1.23;0.50;;;;;;;22.80;48.21;97820.88;5037637;28;20216;-58
2021/04/30 10:15:51;;;;;;;2.25;0.60;;;;;;;22.78;48.15;97819.38;5031452;28;20283;-58
2021/04/30 10:18:18;;;;;;;1.25;0.68;;;;;;;22.76;48.67;97824.88;5038032;28;20215;-55
2021/04/30 10:20:45;;;;;;;1.10;0.70;;;;;;;22.74;48.24;97821.56;5031185;28;20299;-57
2021/04/30 10:23:16;;;;;;;3.08;0.70;;;;;;;22.72;48.44;97816.41;5038271;28;20205;-55
2021/04/30 10:25:47;;;;;;;1.15;0.60;;;;;;;22.72;48.31;97818.28;5039657;28;20257;-58
2021/04/30 10:28:16;;;;;;;4.63;0.88;;;;;;;22.70;48.04;97830.94;5034911;28;20687;-58
2021/04/30 10:30:49;;;;;;;2.25;0.70;;;;;;;22.70;47.45;97844.28;5031544;28;20707;-57
2021/04/30 10:33:21;;;;;;;4.53;0.93;;;;;;;22.69;47.32;97842.59;5037604;28;20243;-55
2021/04/30 10:35:56;;;;;;;3.45;0.70;;;;;;;22.70;47.78;97841.59;5048565;28;20281;-55
2021/04/30 10:38:27;;;;;;;5.68;1.25;;;;;;;22.66;47.84;97841.09;5042580;28;20242;-57
2021/04/30 10:41:00;;;;;;;5.13;1.00;;;;;;;22.68;48.47;97851.59;5049315;28;20362;-55
2021/04/30 10:43:27;;;;;;;5.55;0.80;;;;;;;22.68;48.02;97854.25;5046664;28;20682;-52
2021/04/30 10:46:03;;;;;;;5.75;1.00;;;;;;;22.70;47.89;97868.25;5045372;28;20282;-51
2021/04/30 10:48:30;;;;;;;5.70;0.98;;;;;;;22.72;48.59;97866.22;5034816;28;20288;-55
2021/04/30 10:51:08;;;;;;;4.90;0.85;;;;;;;22.73;48.03;97862.53;5048298;28;20214;-56
2021/04/30 10:53:35;;;;;;;8.90;1.20;;;;;;;22.75;48.12;97870.38;5049095;28;20230;-58
2021/04/30 10:56:26;;;;;;;11.13;1.17;;;;;;;22.76;48.80;97872.03;5048651;28;20223;-58
2021/04/30 10:58:52;;;;;;;8.82;0.90;;;;;;;22.77;49.26;97877.19;5044110;28;20223;-61
2021/04/30 11:01:27;;;;;;;8.23;1.15;;;;;;;22.78;47.81;97875.34;5045624;28;20343;-55
2021/04/30 11:04:16;;;;;;;9.23;0.98;;;;;;;22.79;48.74;97877.00;5036800;28;20202;-57
2021/04/30 11:06:47;;;;;;;6.07;1.20;;;;;;;22.81;48.68;97891.81;5049893;28;20241;-56
2021/04/30 11:09:19;;;;;;;6.43;0.90;;;;;;;22.84;48.93;97886.13;5049537;28;20207;-51
2021/04/30 11:11:47;;;;;;;3.88;0.95;;;;;;;22.85;49.12;97887.81;5050612;28;20204;-60
2021/04/30 11:14:25;;;;;;;5.47;1.08;;;;;;;22.87;48.55;97888.44;5057837;28;20209;-58
2021/04/30 11:16:52;;;;;;;3.20;0.70;;;;;;;22.89;48.72;97893.59;5051885;28;20201;-56
2021/04/30 11:19:19;;;;;;;6.05;1.27;;;;;;;22.90;49.57;97890.75;5054181;28;21090;-58
2021/04/30 11:21:49;;;;;;;5.68;1.13;;;;;;;22.92;48.55;97893.25;5048506;28;20206;-55
2021/04/30 11:24:36;;;;;;;3.38;1.08;;;;;;;22.92;47.84;97893.25;5050213;28;20234;-62
2021/04/30 11:27:33;;;;;;;4.47;0.75;;;;;;;22.97;49.25;97887.41;5056618;28;20209;-61
2021/04/30 11:30:25;;;;;;;2.30;0.95;;;;;;;22.96;48.57;97883.06;5056050;28;20208;-58
2021/04/30 11:32:59;;;;;;;2.22;0.90;;;;;;;23.00;48.37;97873.69;5053543;28;20624;-62
2021/04/30 11:35:27;;;;;;;2.55;0.73;;;;;;;23.01;49.26;97876.19;5052927;28;20250;-60